Time;durP1;ratioP1;P1;durP2;ratioP2;P2;SDS_P1;SDS_P2;PMS_P1;PMS_P2;Temp;Humidity;BMP_temperature;BMP_pressure;BME280_temperature;BME280_humidity;BME280_pressure;Samples;Min_cycle;Max_cycle;Signal;HPM_P1;HPM_P2
2022/06/02 00:02:10;;;;;;;9.40;4.03;;;20.00;96.50;;;20.45;64.05;95110.22;5037508;28;21020;-53
2022/06/02 00:05:00;;;;;;;8.23;3.83;;;20.00;96.60;;;20.40;64.14;95113.50;5044021;28;20944;-54
2022/06/02 00:07:33;;;;;;;8.37;3.70;;;20.00;96.50;;;20.37;63.87;95114.72;5042814;28;20456;-52
2022/06/02 00:10:06;;;;;;;4.97;4.13;;;20.00;96.40;;;20.33;64.45;95116.13;5041964;28;20479;-53
2022/06/02 00:12:37;;;;;;;10.03;4.07;;;19.90;96.50;;;20.33;64.73;95112.63;5041516;28;20518;-53
2022/06/02 00:15:17;;;;;;;5.97;3.37;;;19.90;96.80;;;20.31;64.95;95115.50;5044093;28;20475;-54
2022/06/02 00:17:49;;;;;;;4.97;4.57;;;19.90;96.80;;;20.28;64.40;95109.69;5040756;28;20529;-52
2022/06/02 00:20:18;;;;;;;10.00;3.87;;;19.80;96.50;;;20.25;64.65;95110.94;5042173;28;20495;-53
2022/06/02 00:22:57;;;;;;;7.83;3.80;;;19.80;96.80;;;20.26;65.04;95111.75;5042357;28;20853;-55
2022/06/02 00:25:28;;;;;;;5.77;3.93;;;19.80;97.00;;;20.25;64.89;95108.28;5039356;28;20484;-53
2022/06/02 00:28:03;;;;;;;5.47;4.10;;;19.80;97.10;;;20.22;64.93;95114.81;5042482;28;20840;-53
2022/06/02 00:30:36;;;;;;;5.90;3.87;;;19.80;96.90;;;20.17;65.13;95105.72;5045393;28;20478;-52
2022/06/02 00:33:14;;;;;;;6.73;4.00;;;19.80;96.80;;;20.16;65.08;95112.09;5039720;28;20451;-54
2022/06/02 00:35:43;;;;;;;6.50;4.60;;;19.70;96.90;;;20.12;64.78;95111.63;5044053;28;20479;-53
2022/06/02 00:38:19;;;;;;;11.30;4.50;;;19.70;97.10;;;20.09;65.71;95109.34;5041965;28;20463;-54
2022/06/02 00:40:46;;;;;;;4.43;3.77;;;19.70;97.40;;;20.08;65.16;95120.22;5040915;28;20502;-54
2022/06/02 00:43:56;;;;;;;5.50;4.37;;;19.70;97.40;;;20.05;65.65;95116.94;5040545;28;20475;-56
2022/06/02 00:46:32;;;;;;;5.90;4.10;;;19.70;97.60;;;20.04;65.85;95115.28;5003449;28;21073;-53
2022/06/02 00:49:08;;;;;;;9.90;4.57;;;19.60;97.50;;;20.05;65.99;95110.78;5041406;28;20979;-54
2022/06/02 00:51:43;;;;;;;6.67;4.03;;;19.60;97.70;;;20.05;66.42;95114.25;5039695;28;20466;-54
2022/06/02 00:59:57;;;;;;;6.27;4.53;;;19.60;97.90;;;20.03;66.15;95118.97;5041482;28;20518;-52
2022/06/02 01:02:26;;;;;;;10.37;4.80;;;19.60;98.00;;;20.02;66.25;95119.19;5040412;28;20520;-53
2022/06/02 01:04:55;;;;;;;5.63;4.70;;;19.60;98.20;;;20.00;66.43;95118.53;5044809;28;20750;-53
2022/06/02 01:07:30;;;;;;;8.80;4.77;;;19.60;98.20;;;19.99;66.35;95123.03;5041548;28;20455;-55
2022/06/02 01:10:19;;;;;;;4.33;4.10;;;19.60;98.30;;;20.01;67.14;95125.53;5042577;28;20478;-54
2022/06/02 01:13:12;;;;;;;8.40;4.90;;;19.60;98.50;;;19.98;67.13;95121.38;5042647;28;21038;-57
2022/06/02 01:15:48;;;;;;;6.87;4.40;;;19.60;98.70;;;19.98;66.50;95120.56;5035112;28;20492;-52
2022/06/02 01:18:24;;;;;;;12.73;3.87;;;19.60;98.40;;;19.96;66.78;95117.28;5040512;28;20833;-53
2022/06/02 01:21:09;;;;;;;6.17;4.43;;;19.60;98.40;;;19.94;66.75;95122.81;5043785;28;20499;-53
2022/06/02 01:24:07;;;;;;;10.00;3.93;;;19.50;98.30;;;19.91;66.65;95122.34;5040969;28;20456;-56
2022/06/02 01:26:57;;;;;;;5.43;3.77;;;19.50;98.30;;;19.87;66.58;95116.56;5037380;28;20517;-53
2022/06/02 01:29:44;;;;;;;12.40;3.87;;;19.40;98.30;;;19.82;66.24;95125.16;5041837;28;20963;-54
2022/06/02 01:32:15;;;;;;;6.97;4.10;;;19.40;98.10;;;19.78;66.31;95121.19;5041441;28;20477;-53
2022/06/02 01:34:59;;;;;;;4.33;3.97;;;19.40;98.10;;;19.74;66.39;95121.78;5041443;28;20559;-54
2022/06/02 01:37:31;;;;;;;5.17;3.90;;;19.30;98.10;;;19.70;66.27;95115.97;5041499;28;20451;-54
2022/06/02 01:40:10;;;;;;;6.90;4.17;;;19.30;98.00;;;19.65;66.23;95119.19;5042910;28;21015;-53
2022/06/02 01:42:48;;;;;;;12.10;3.77;;;19.30;98.10;;;19.63;66.13;95115.09;5039468;28;20444;-54
2022/06/02 01:45:20;;;;;;;5.37;3.50;;;19.30;98.10;;;19.59;66.05;95117.28;5042622;28;20483;-54
2022/06/02 01:47:52;;;;;;;17.67;4.67;;;19.20;98.10;;;19.54;66.72;95122.38;5044571;28;20980;-53
2022/06/02 01:50:30;;;;;;;19.87;4.00;;;19.10;98.20;;;19.49;66.36;95120.28;5043046;28;21076;-54
2022/06/02 01:53:34;;;;;;;4.10;3.10;;;19.10;98.20;;;19.45;66.75;95116.31;5041109;28;20451;-53
2022/06/02 01:56:16;;;;;;;15.00;4.47;;;19.10;98.30;;;19.42;66.59;95115.88;5038644;28;20487;-55
2022/06/02 01:58:56;;;;;;;4.50;3.67;;;19.00;98.40;;;19.38;67.11;95114.59;5039277;28;20509;-53
2022/06/02 02:01:32;;;;;;;3.50;3.30;;;19.00;98.50;;;19.34;67.23;95108.81;5042816;28;20506;-54
2022/06/02 02:04:13;;;;;;;3.87;3.67;;;18.90;98.40;;;19.33;66.53;95112.50;5040173;28;20451;-53
2022/06/02 02:06:44;;;;;;;8.73;3.80;;;18.90;98.50;;;19.30;66.68;95108.38;5039758;28;20973;-54
2022/06/02 02:09:16;;;;;;;8.80;4.40;;;18.90;98.50;;;19.28;66.84;95110.41;5041308;28;20464;-54
2022/06/02 02:11:50;;;;;;;7.83;4.20;;;18.90;98.50;;;19.27;67.11;95103.44;5040208;28;20448;-54
2022/06/02 02:14:51;;;;;;;4.73;4.27;;;18.90;98.60;;;19.26;67.34;95107.09;5042901;28;21017;-55
2022/06/02 02:17:45;;;;;;;5.47;4.07;;;18.90;98.70;;;19.22;67.15;95100.47;5040235;28;20467;-54
2022/06/02 02:20:27;;;;;;;9.40;4.10;;;18.80;98.70;;;19.19;66.94;95108.03;5020683;28;21031;-52
2022/06/02 02:23:00;;;;;;;7.73;4.67;;;18.80;98.70;;;19.16;66.71;95111.91;5041102;28;21066;-54
2022/06/02 02:25:32;;;;;;;5.13;3.57;;;18.80;98.70;;;19.13;67.05;95109.59;5038488;28;20482;-55
2022/06/02 02:28:05;;;;;;;3.70;3.43;;;18.70;98.60;;;19.11;67.20;95116.97;5041861;28;20455;-54
2022/06/02 02:30:51;;;;;;;4.80;4.40;;;18.70;98.70;;;19.11;67.36;95114.31;5041596;28;20908;-53
2022/06/02 02:33:32;;;;;;;6.07;4.37;;;18.70;98.70;;;19.09;66.71;95111.00;5042284;28;20531;-55
2022/06/02 02:36:06;;;;;;;20.30;4.80;;;18.70;98.70;;;19.06;67.21;95112.19;5039218;28;20878;-54
2022/06/02 02:38:41;;;;;;;7.33;3.90;;;18.70;98.70;;;19.04;67.32;95113.38;5043636;28;20455;-54
2022/06/02 02:41:13;;;;;;;6.30;3.93;;;18.70;98.70;;;19.02;67.06;95118.09;5039964;28;20491;-54
2022/06/02 02:43:44;;;;;;;4.27;3.70;;;18.60;98.60;;;18.98;67.02;95115.78;5045958;28;20454;-52
2022/06/02 02:46:15;;;;;;;7.30;4.13;;;18.60;98.60;;;18.96;67.05;95117.81;5044687;28;20540;-54
2022/06/02 02:48:51;;;;;;;5.67;4.20;;;18.60;98.60;;;18.92;66.68;95116.53;5042851;28;22287;-54
2022/06/02 02:51:32;;;;;;;4.40;4.10;;;18.60;98.60;;;18.90;67.19;95117.72;5045736;28;20894;-53
2022/06/02 02:54:05;;;;;;;5.00;3.87;;;18.50;98.60;;;18.86;67.22;95119.13;5042077;28;20463;-54
2022/06/02 02:56:37;;;;;;;5.80;3.80;;;18.50;98.60;;;18.86;67.53;95108.47;5043167;28;20456;-53
2022/06/02 02:59:07;;;;;;;10.30;5.00;;;18.50;98.60;;;18.81;67.39;95115.13;5044622;28;20533;-53
2022/06/02 03:01:41;;;;;;;9.13;5.13;;;18.40;98.50;;;18.79;67.72;95111.84;5043182;28;20488;-53
2022/06/02 03:04:37;;;;;;;9.60;3.70;;;18.40;98.80;;;18.78;67.79;95117.34;5040055;28;20452;-53
2022/06/02 03:07:06;;;;;;;13.33;4.40;;;18.40;98.90;;;18.77;67.57;95123.69;5042811;28;20456;-52
2022/06/02 03:09:41;;;;;;;4.97;4.17;;;18.40;98.80;;;18.76;67.66;95127.34;5044283;28;20976;-53
2022/06/02 03:12:12;;;;;;;8.83;3.63;;;18.40;98.90;;;18.75;67.55;95120.38;5047680;28;20447;-54
2022/06/02 03:15:08;;;;;;;7.53;4.83;;;18.40;99.00;;;18.76;67.50;95130.84;5045761;28;20483;-54
2022/06/02 03:17:46;;;;;;;9.70;4.30;;;18.40;99.00;;;18.74;67.85;95130.19;5041908;28;20788;-54
2022/06/02 03:20:18;;;;;;;6.67;4.87;;;18.40;99.10;;;18.73;68.05;95128.56;5042405;28;20544;-54
2022/06/02 03:23:06;;;;;;;7.27;4.40;;;18.40;99.30;;;18.71;67.56;95129.75;5046215;28;20811;-53
2022/06/02 03:25:39;;;;;;;6.23;4.70;;;18.40;99.20;;;18.69;67.87;95127.25;5045875;28;20844;-55
2022/06/02 03:28:17;;;;;;;11.70;4.33;;;18.30;99.20;;;18.69;68.60;95129.94;5041373;28;20538;-53
2022/06/02 03:30:48;;;;;;;5.23;4.27;;;18.30;99.40;;;18.70;68.14;95128.94;5042529;28;20480;-53
2022/06/02 03:33:34;;;;;;;4.13;3.73;;;18.30;99.50;;;18.69;68.54;95134.44;5044531;28;20578;-53
2022/06/02 03:36:10;;;;;;;10.13;4.63;;;18.30;99.60;;;18.71;68.22;95137.75;5042512;28;20480;-53
2022/06/02 03:39:00;;;;;;;4.87;4.43;;;18.30;99.60;;;18.73;68.44;95133.03;5046091;28;20439;-54
2022/06/02 03:41:51;;;;;;;5.63;5.10;;;18.30;99.80;;;18.72;68.36;95131.41;5044823;28;21015;-54
2022/06/02 03:44:28;;;;;;;8.70;5.80;;;18.30;99.70;;;18.72;68.44;95120.75;5043960;28;20440;-53
2022/06/02 03:47:14;;;;;;;19.23;5.40;;;18.30;99.50;;;18.69;68.58;95119.28;5043874;28;20452;-53
2022/06/02 03:50:07;;;;;;;14.43;6.37;;;18.30;99.70;;;18.67;69.04;95115.13;5042420;28;20479;-53
2022/06/02 03:53:11;;;;;;;9.63;6.70;;;18.30;99.80;;;18.64;68.82;95117.16;5042241;28;20466;-54
2022/06/02 03:55:51;;;;;;;10.90;6.27;;;18.30;99.90;;;18.64;68.60;95113.69;5043241;28;20474;-53
2022/06/02 03:58:39;;;;;;;10.10;5.80;;;18.20;99.70;;;18.66;68.75;95116.16;5040498;28;20654;-55
2022/06/02 04:01:09;;;;;;;16.83;5.50;;;18.20;99.90;;;18.66;68.17;95116.16;5039279;28;20586;-53
2022/06/02 04:03:52;;;;;;;14.27;6.13;;;18.30;99.80;;;18.64;69.05;95109.16;5040715;28;20463;-54
2022/06/02 04:06:31;;;;;;;11.40;6.73;;;18.30;99.90;;;18.66;69.05;95116.16;5045198;28;20467;-55
2022/06/02 04:09:09;;;;;;;21.10;7.13;;;18.30;99.90;;;18.66;68.10;95116.97;5042188;28;20460;-54
2022/06/02 04:14:58;;;;;;;7.93;6.07;;;18.30;99.90;;;18.69;68.55;95121.94;5040340;28;20467;-54
2022/06/02 04:17:29;;;;;;;9.47;4.50;;;18.30;99.90;;;18.74;68.74;95129.38;5042509;28;20988;-54
2022/06/02 04:23:39;;;;;;;8.87;5.60;;;18.40;99.90;;;18.86;69.03;95127.13;5042332;28;21149;-54
2022/06/02 04:26:54;;;;;;;9.00;5.60;;;18.40;99.90;;;18.92;68.86;95121.03;5044655;28;20493;-56
2022/06/02 04:29:40;;;;;;;9.97;5.90;;;18.50;99.90;;;18.96;68.40;95124.97;5034886;28;20488;-54
2022/06/02 04:32:17;;;;;;;9.43;5.53;;;18.60;99.90;;;19.04;68.85;95124.91;5041496;28;20467;-54
2022/06/02 04:34:54;;;;;;;8.90;5.87;;;18.60;99.90;;;19.11;68.87;95123.13;5042120;28;21015;-56
2022/06/02 04:37:30;;;;;;;9.80;5.40;;;18.70;99.90;;;19.19;68.74;95130.19;5036308;28;21008;-55
2022/06/02 04:40:04;;;;;;;7.10;5.37;;;18.80;99.90;;;19.28;68.32;95136.25;5043031;28;20614;-56
2022/06/02 04:42:38;;;;;;;16.67;6.63;;;18.80;99.90;;;19.34;68.31;95140.84;5042634;28;20574;-56
2022/06/02 04:45:11;;;;;;;15.10;6.20;;;18.90;99.90;;;19.41;68.22;95141.75;5044240;28;20512;-53
2022/06/02 04:47:57;;;;;;;13.23;6.10;;;19.00;99.90;;;19.50;68.41;95148.63;5041740;28;21045;-54
2022/06/02 04:50:31;;;;;;;25.70;6.57;;;19.10;99.90;;;19.60;67.92;95150.16;5041225;28;20471;-54
2022/06/02 04:53:18;;;;;;;19.30;7.23;;;19.20;99.90;;;19.68;68.31;95156.19;5042927;28;20447;-54
2022/06/02 04:56:08;;;;;;;18.20;7.10;;;19.30;99.90;;;19.76;68.71;95149.91;5039186;28;20772;-53
2022/06/02 04:58:43;;;;;;;18.93;7.10;;;19.30;99.90;;;19.83;68.21;95147.31;5041651;28;20992;-53
2022/06/02 05:01:22;;;;;;;19.63;7.07;;;19.40;99.90;;;19.92;68.20;95153.38;5040766;28;21125;-54
2022/06/02 05:03:56;;;;;;;16.43;6.93;;;19.50;99.90;;;19.99;68.13;95152.41;5041011;28;20458;-54
2022/06/02 05:06:27;;;;;;;22.13;5.77;;;19.60;99.90;;;20.08;67.90;95149.59;5040847;28;20598;-54
2022/06/02 05:09:03;;;;;;;18.57;6.77;;;19.70;99.90;;;20.16;67.93;95144.16;5043195;28;20452;-54
2022/06/02 05:11:41;;;;;;;14.30;7.30;;;19.70;99.90;;;20.24;67.93;95136.81;5040289;28;20456;-54
2022/06/02 05:14:17;;;;;;;12.87;6.77;;;19.80;99.70;;;20.33;67.26;95140.16;5039202;28;20513;-52
2022/06/02 05:16:56;;;;;;;12.33;7.20;;;19.90;99.60;;;20.48;67.14;95144.59;5040670;28;20447;-54
2022/06/02 05:19:38;;;;;;;15.73;7.50;;;20.00;99.50;;;20.62;66.63;95141.00;5038827;28;20475;-55
2022/06/02 05:23:02;;;;;;;13.03;7.20;;;20.10;99.40;;;20.81;67.15;95141.34;5037226;28;20534;-53
2022/06/02 05:26:17;;;;;;;21.77;8.00;;;20.30;99.30;;;21.08;66.57;95142.31;5040170;28;20483;-54
2022/06/02 05:29:35;;;;;;;15.27;7.33;;;20.50;99.30;;;21.31;66.10;95136.66;5041362;28;20463;-53
2022/06/02 05:32:27;;;;;;;16.87;7.57;;;20.70;99.10;;;21.58;65.68;95136.75;5039572;28;20440;-53
2022/06/02 05:35:29;;;;;;;15.90;6.67;;;21.00;98.80;;;21.80;64.76;95143.63;5040037;28;20472;-54
2022/06/02 05:38:21;;;;;;;10.10;5.73;;;21.20;98.20;;;22.04;63.73;95144.06;5038412;28;20456;-52
2022/06/02 05:40:52;;;;;;;13.30;7.03;;;21.50;97.70;;;22.26;63.68;95149.22;5041384;28;20880;-53
2022/06/02 05:43:28;;;;;;;11.83;6.27;;;21.70;97.40;;;22.48;62.16;95137.31;5042692;28;20471;-54
2022/06/02 05:46:19;;;;;;;10.30;6.50;;;21.90;96.80;;;22.69;61.47;95138.09;5042108;28;20518;-54
2022/06/02 05:49:03;;;;;;;13.27;6.17;;;22.10;96.10;;;22.87;61.05;95140.13;5041346;28;20856;-54
2022/06/02 05:51:35;;;;;;;15.93;6.50;;;22.30;95.80;;;23.05;61.73;95142.13;5042147;28;20506;-54
2022/06/02 05:54:18;;;;;;;13.90;6.40;;;22.50;95.90;;;23.23;60.11;95139.63;5038462;28;20462;-56
2022/06/02 05:56:54;;;;;;;13.13;7.10;;;22.60;95.10;;;23.43;60.73;95138.72;5042419;28;20452;-53
2022/06/02 05:59:47;;;;;;;25.60;6.90;;;22.80;95.20;;;23.61;59.77;95136.16;5038402;28;20477;-54
2022/06/02 06:02:43;;;;;;;10.43;5.57;;;23.00;94.70;;;23.78;58.75;95141.00;5042872;28;21019;-54
2022/06/02 06:05:17;;;;;;;12.47;4.87;;;23.20;94.10;;;23.87;59.04;95144.31;5041684;28;20467;-55
2022/06/02 06:08:14;;;;;;;11.70;5.57;;;23.30;93.80;;;23.99;57.12;95138.03;5035742;28;20460;-55
2022/06/02 06:10:51;;;;;;;9.70;6.47;;;23.40;92.70;;;24.15;58.33;95141.22;5038799;28;20485;-57
2022/06/02 06:13:53;;;;;;;12.23;5.30;;;23.50;93.20;;;24.30;57.82;95143.59;5043523;28;20538;-57
2022/06/02 06:16:25;;;;;;;7.87;5.47;;;23.70;92.80;;;24.43;58.13;95140.81;5048043;28;20501;-55
2022/06/02 06:19:07;;;;;;;17.80;6.67;;;23.80;92.80;;;24.60;56.29;95142.97;5047924;28;20835;-55
2022/06/02 06:21:58;;;;;;;16.57;5.63;;;24.00;92.00;;;24.76;55.63;95141.59;5046434;28;20440;-54
2022/06/02 06:24:50;;;;;;;21.27;6.23;;;24.10;91.80;;;24.88;56.26;95145.19;5044936;28;20817;-54
2022/06/02 06:27:22;;;;;;;26.33;7.83;;;24.30;91.40;;;24.99;56.11;95149.84;5043436;28;20534;-54
2022/06/02 06:30:02;;;;;;;6.90;4.60;;;24.40;91.40;;;25.14;56.11;95154.00;5042897;28;20537;-53
2022/06/02 06:32:37;;;;;;;8.90;5.50;;;24.50;91.20;;;25.27;54.86;95148.50;5044638;28;20542;-54
2022/06/02 06:35:29;;;;;;;14.13;5.30;;;24.60;90.70;;;25.39;54.42;95144.03;5046433;28;20506;-53
2022/06/02 06:38:18;;;;;;;9.20;4.63;;;24.70;90.80;;;25.55;54.39;95144.47;5043021;28;20972;-55
2022/06/02 06:41:21;;;;;;;9.80;5.03;;;24.90;89.80;;;25.68;54.18;95144.25;5042722;28;20506;-55
2022/06/02 06:44:04;;;;;;;19.33;5.60;;;25.00;89.20;;;25.76;53.91;95149.34;5040545;28;20450;-54
2022/06/02 06:46:36;;;;;;;10.50;5.13;;;25.10;88.60;;;25.88;53.48;95148.56;5042610;28;20458;-52
2022/06/02 06:49:10;;;;;;;5.80;4.80;;;25.20;88.20;;;26.00;53.43;95146.78;5045380;28;20439;-53
2022/06/02 06:51:44;;;;;;;17.53;6.50;;;25.30;87.40;;;26.11;52.60;95148.66;5045017;28;20567;-55
2022/06/02 06:54:17;;;;;;;8.80;5.00;;;25.50;86.60;;;26.24;52.45;95152.22;5047628;28;20530;-57
2022/06/02 06:56:49;;;;;;;15.63;5.47;;;25.60;85.50;;;26.31;52.00;95144.84;5044562;28;20980;-53
2022/06/02 06:59:27;;;;;;;14.43;5.40;;;25.60;85.00;;;26.36;51.55;95144.97;5042630;28;20912;-54
2022/06/02 07:02:01;;;;;;;9.70;5.00;;;25.70;83.70;;;26.38;51.97;95142.84;5045935;28;20574;-55
2022/06/02 07:04:37;;;;;;;10.90;4.90;;;25.70;83.40;;;26.54;51.31;95140.53;5046311;28;20888;-54
2022/06/02 07:07:11;;;;;;;12.50;5.23;;;25.90;83.10;;;26.77;51.31;95135.19;5047607;28;20446;-55
2022/06/02 07:09:44;;;;;;;13.63;6.30;;;26.10;83.10;;;26.99;50.56;95135.41;5043902;28;20878;-56
2022/06/02 07:15:07;;;;;;;17.27;6.63;;;26.50;81.20;;;27.33;50.25;95143.72;5042469;28;20501;-53
2022/06/02 07:17:42;;;;;;;13.50;6.10;;;26.60;79.90;;;27.48;49.73;95134.28;5043838;28;20440;-54
2022/06/02 07:20:17;;;;;;;18.77;5.57;;;26.80;80.00;;;27.64;49.52;95146.25;5046596;28;20502;-55
2022/06/02 07:22:50;;;;;;;11.60;5.90;;;26.90;79.30;;;27.78;49.19;95144.03;5043124;28;20486;-54
2022/06/02 07:25:22;;;;;;;7.60;5.30;;;27.00;78.40;;;27.84;48.77;95135.81;5042122;28;21094;-54
2022/06/02 07:27:54;;;;;;;5.27;4.80;;;27.20;77.30;;;27.95;49.06;95147.66;5046011;28;21116;-57
2022/06/02 07:30:52;;;;;;;6.00;5.23;;;27.20;77.00;;;28.13;47.77;95135.00;5041186;28;20486;-55
2022/06/02 07:33:44;;;;;;;14.97;4.50;;;27.40;75.60;;;28.36;48.11;95140.25;5040612;28;20967;-55
2022/06/02 07:36:30;;;;;;;14.07;5.13;;;27.60;75.60;;;28.61;47.10;95145.31;5034598;28;20984;-56
2022/06/02 07:39:24;;;;;;;10.93;5.23;;;27.90;74.30;;;28.88;46.62;95136.50;5044733;28;21002;-54
2022/06/02 07:42:04;;;;;;;8.83;4.80;;;28.10;73.70;;;29.13;46.59;95140.63;5041305;28;20950;-55
2022/06/02 07:45:16;;;;;;;11.30;4.70;;;28.40;73.30;;;29.36;45.70;95141.47;5043482;28;20463;-55
2022/06/02 07:48:16;;;;;;;11.03;4.60;;;28.50;69.40;;;29.56;45.74;95135.50;5042757;28;20836;-57
2022/06/02 07:50:46;;;;;;;13.63;5.20;;;28.80;70.00;;;29.72;45.83;95134.63;5001457;28;20991;-53
2022/06/02 07:53:17;;;;;;;10.07;5.20;;;29.00;68.60;;;29.83;44.87;95132.88;5043376;28;20448;-53
2022/06/02 07:55:53;;;;;;;11.40;5.40;;;29.10;67.60;;;29.88;45.01;95135.63;5045378;28;20517;-55
2022/06/02 07:58:30;;;;;;;9.00;5.03;;;29.20;66.40;;;29.84;44.92;95137.22;5043390;28;20196;-55
2022/06/02 08:01:02;;;;;;;15.87;4.80;;;29.20;65.50;;;29.79;44.64;95140.66;5043122;28;20474;-55
2022/06/02 08:03:47;;;;;;;14.73;5.30;;;29.10;65.40;;;29.84;44.77;95138.03;5043864;28;20478;-54
2022/06/02 08:06:19;;;;;;;11.50;5.13;;;29.10;65.50;;;29.93;41.26;95143.84;5042837;28;20618;-57
2022/06/02 08:08:56;;;;;;;10.90;4.40;;;29.20;60.10;;;30.03;43.15;95138.50;5040464;28;20831;-56
2022/06/02 08:11:36;;;;;;;8.00;4.70;;;29.30;62.90;;;30.20;43.29;95134.88;5042830;28;21014;-57
2022/06/02 08:14:12;;;;;;;11.87;5.77;;;29.40;62.70;;;30.37;43.59;95140.97;5043836;28;20447;-54
2022/06/02 08:16:54;;;;;;;13.60;4.20;;;29.60;63.00;;;30.60;43.12;95141.75;5042551;28;20688;-57
2022/06/02 08:19:30;;;;;;;13.47;5.00;;;29.80;62.00;;;30.83;43.19;95134.28;5043782;28;20688;-55
2022/06/02 08:22:00;;;;;;;10.83;4.80;;;30.00;61.20;;;31.06;42.41;95133.94;5043767;28;20290;-54
2022/06/02 08:24:54;;;;;;;18.60;9.50;;;30.30;60.30;;;31.32;41.63;95138.69;5043591;28;20220;-53
2022/06/02 08:27:35;;;;;;;10.10;4.83;;;30.50;59.40;;;31.39;40.83;95131.13;5042139;28;20284;-55
2022/06/02 08:30:10;;;;;;;8.63;5.47;;;30.70;57.80;;;31.35;38.48;95132.75;5043646;28;20693;-55
2022/06/02 08:33:07;;;;;;;8.40;4.17;;;30.70;56.80;;;31.37;40.43;95130.56;5044206;28;20213;-55
2022/06/02 08:35:39;;;;;;;7.20;4.17;;;30.70;56.80;;;31.53;40.46;95135.00;5039981;28;20239;-54
2022/06/02 08:38:20;;;;;;;9.33;3.47;;;30.80;56.90;;;31.76;40.86;95130.19;5042428;28;20278;-54
2022/06/02 08:41:48;;;;;;;5.20;3.30;;;30.90;56.90;;;32.02;40.21;95131.06;5042459;28;20225;-56
2022/06/02 08:45:22;;;;;;;11.90;3.90;;;31.20;56.30;;;32.39;38.88;95127.34;5043257;28;20224;-56
2022/06/02 08:48:32;;;;;;;12.95;5.03;;;31.60;55.20;;;32.62;38.41;95125.19;5002522;28;20213;-54
2022/06/02 08:51:25;;;;;;;16.55;4.18;;;31.90;54.30;;;32.63;38.69;95124.91;5000469;28;20225;-55
2022/06/02 08:54:38;;;;;;;8.98;3.95;;;31.90;53.80;;;32.76;37.55;95133.66;5042013;28;20208;-55
2022/06/02 08:57:47;;;;;;;8.40;3.85;;;32.00;52.40;;;32.81;37.03;95131.75;5041291;28;20200;-56
2022/06/02 09:00:33;;;;;;;9.98;5.07;;;32.10;51.50;;;32.82;37.35;95125.19;5041550;28;20237;-55
2022/06/02 09:03:53;;;;;;;7.88;3.40;;;32.10;51.40;;;32.90;37.72;95128.44;5041083;28;20239;-54
2022/06/02 09:07:15;;;;;;;6.95;4.28;;;32.20;51.40;;;32.96;35.53;95128.16;5040087;28;20212;-57
2022/06/02 09:10:16;;;;;;;10.93;3.40;;;32.20;48.80;;;33.04;36.28;95133.03;5041928;28;20227;-55
2022/06/02 09:13:19;;;;;;;3.00;2.72;;;32.30;50.40;;;33.19;35.50;95123.25;5041108;28;20212;-56
2022/06/02 09:16:13;;;;;;;7.10;3.40;;;32.40;49.20;;;33.27;35.06;95124.59;5040702;28;20370;-56
2022/06/02 09:19:29;;;;;;;6.00;2.92;;;32.50;48.10;;;33.17;33.91;95122.66;5044886;28;20292;-54
2022/06/02 09:22:12;;;;;;;4.63;3.50;;;32.50;46.70;;;33.05;35.28;95120.25;5038772;28;20314;-54
2022/06/02 09:24:46;;;;;;;7.78;3.40;;;32.40;48.20;;;32.96;35.54;95121.91;5041271;28;20225;-54
2022/06/02 09:28:00;;;;;;;8.82;3.17;;;32.30;48.00;;;33.00;34.18;95112.06;5041123;28;20206;-54
2022/06/02 09:30:38;;;;;;;6.35;3.50;;;32.20;47.10;;;33.12;35.80;95118.03;5029684;28;20316;-55
2022/06/02 09:33:39;;;;;;;4.70;3.40;;;32.40;48.00;;;33.30;35.05;95126.75;5044077;28;20314;-56
2022/06/02 09:36:58;;;;;;;9.52;3.72;;;32.50;48.90;;;33.44;34.45;95105.16;5041039;28;20239;-55
2022/06/02 09:39:47;;;;;;;15.65;3.22;;;32.70;47.70;;;33.66;33.70;95112.97;5002616;28;20622;-55
2022/06/02 09:42:52;;;;;;;5.03;3.30;;;32.90;46.30;;;33.81;33.46;95112.13;5038310;28;20666;-52
2022/06/02 09:45:32;;;;;;;4.50;4.00;;;33.00;43.80;;;33.85;33.25;95100.34;5040601;28;20677;-54
2022/06/02 09:48:11;;;;;;;8.85;3.72;;;33.10;45.40;;;33.67;33.53;95103.69;5042386;28;20200;-55
2022/06/02 09:51:23;;;;;;;6.40;3.30;;;33.00;45.00;;;33.61;32.98;95105.63;5046952;28;20850;-53
2022/06/02 09:54:42;;;;;;;9.88;3.35;;;32.90;44.30;;;33.68;32.19;95103.41;5011866;28;20703;-53
2022/06/02 10:00:48;;;;;;;6.97;3.05;;;33.10;42.60;;;33.94;30.94;95095.94;5017914;28;20231;-56
2022/06/02 10:03:54;;;;;;;11.57;3.00;;;33.20;42.20;;;33.94;28.17;95095.94;5045798;28;20278;-56
2022/06/02 10:07:06;;;;;;;13.07;3.15;;;33.20;39.50;;;33.94;29.50;95087.75;5044530;28;20517;-55
2022/06/02 10:09:43;;;;;;;5.72;2.42;;;33.20;39.00;;;34.04;29.10;95091.50;5035982;28;20219;-54
2022/06/02 10:15:27;;;;;;;7.03;2.95;;;33.30;35.50;;;33.87;27.35;95087.22;5045847;28;20224;-55
2022/06/02 10:18:30;;;;;;;8.48;2.63;;;33.20;37.40;;;33.79;28.71;95087.84;5047996;28;20212;-53
2022/06/02 10:21:10;;;;;;;13.80;2.50;;;33.10;39.70;;;33.82;29.86;95089.16;5044673;28;20768;-57
2022/06/02 10:24:55;;;;;;;10.63;2.72;;;33.10;40.30;;;33.81;28.89;95088.38;5045966;28;20213;-55
2022/06/02 10:28:02;;;;;;;11.57;2.92;;;33.10;39.10;;;33.86;28.84;95085.59;4965918;28;20240;-55
2022/06/02 10:31:18;;;;;;;18.42;2.92;;;33.10;37.60;;;33.71;27.65;95082.91;5005632;28;20409;-54
2022/06/02 10:34:45;;;;;;;13.85;3.25;;;33.10;37.00;;;33.43;28.61;95063.41;5040955;28;20683;-55
2022/06/02 10:37:39;;;;;;;10.45;3.95;;;32.80;38.10;;;33.29;29.87;95068.66;5043433;28;20209;-54
2022/06/02 10:40:17;;;;;;;5.28;2.60;;;32.70;39.60;;;33.33;31.21;95068.94;5045881;28;20714;-55
2022/06/02 10:43:15;;;;;;;8.73;2.45;;;32.60;41.00;;;33.37;28.90;95059.91;5041878;28;20300;-55
2022/06/02 10:46:33;;;;;;;6.03;2.58;;;32.60;39.50;;;33.42;29.37;95059.09;5038222;28;20317;-55
2022/06/02 10:49:23;;;;;;;4.72;2.05;;;32.70;39.80;;;33.45;29.29;95052.22;5041279;28;20205;-55
2022/06/02 10:52:44;;;;;;;7.75;2.85;;;32.70;40.20;;;33.45;28.97;95042.16;5045953;28;20660;-56
2022/06/02 10:56:09;;;;;;;8.10;2.35;;;32.80;39.60;;;33.43;28.94;95047.06;5045389;28;20301;-56
2022/06/02 10:59:53;;;;;;;5.50;3.05;;;32.80;39.50;;;33.35;29.43;95047.66;5041688;28;20704;-55
2022/06/02 11:03:18;;;;;;;6.32;2.30;;;32.70;39.60;;;33.23;29.62;95040.63;5041376;28;20324;-55
2022/06/02 11:06:45;;;;;;;21.02;3.58;;;32.60;40.20;;;33.08;29.97;95035.19;5043164;28;20228;-54
2022/06/02 11:10:29;;;;;;;8.52;2.55;;;32.50;39.90;;;33.01;30.42;95034.66;4912617;28;20211;-56
2022/06/02 11:13:36;;;;;;;9.18;2.88;;;32.40;40.30;;;32.91;31.04;95034.72;4898353;28;20270;-53
2022/06/02 11:17:03;;;;;;;6.35;3.10;;;32.30;41.00;;;32.85;31.50;95034.72;5043230;28;20239;-54
2022/06/02 11:20:17;;;;;;;3.65;2.42;;;32.20;42.20;;;32.85;32.20;95028.47;5041536;28;20217;-56
2022/06/02 11:23:18;;;;;;;13.85;2.47;;;32.20;42.70;;;32.80;31.90;95037.47;5013907;28;20204;-54
2022/06/02 11:26:30;;;;;;;11.32;3.22;;;32.10;42.30;;;32.69;32.88;95035.88;5040823;28;20220;-53
2022/06/02 11:29:57;;;;;;;10.70;2.70;;;32.00;43.10;;;32.63;32.39;95031.50;5038296;28;20217;-55
2022/06/02 11:33:02;;;;;;;3.30;2.90;;;32.00;43.20;;;32.58;32.13;95023.31;5009461;28;20334;-57
2022/06/02 11:36:17;;;;;;;4.93;3.20;;;31.90;43.20;;;32.50;33.46;95019.25;5041214;28;20331;-54
2022/06/02 11:39:12;;;;;;;2.80;2.60;;;31.90;43.70;;;32.44;33.14;95018.44;5041672;28;20215;-56
2022/06/02 11:41:46;;;;;;;5.35;2.50;;;31.80;43.90;;;32.37;33.74;95015.19;5038495;28;20203;-54
2022/06/02 11:44:15;;;;;;;6.03;2.35;;;31.70;43.90;;;32.31;33.27;95021.72;5039960;28;20225;-54
2022/06/02 11:47:19;;;;;;;2.92;2.60;;;31.60;43.20;;;32.27;32.55;95017.91;5038849;28;20212;-53
2022/06/02 11:50:33;;;;;;;3.20;2.90;;;31.60;43.20;;;32.19;33.77;95019.28;5038434;28;20274;-56
2022/06/02 11:53:33;;;;;;;3.55;2.55;;;31.50;44.40;;;32.12;34.47;95016.81;5044300;28;20209;-53
2022/06/02 11:56:05;;;;;;;9.07;2.92;;;31.50;45.20;;;32.15;34.80;95021.72;5042461;28;20673;-56
2022/06/02 11:59:29;;;;;;;5.25;2.13;;;31.50;46.10;;;32.17;34.65;95016.81;5037139;28;20330;-55